Texhoma, OK (73949)

4:24 AM CDT on August 29, 2016 (GMT -0500)
Grass Land | | Change Station
Active Advisory: Areal Flood Watch

Elev 3323 ft 36.55 °N, 101.66 °W | Updated 14 minutes ago

Clear
Clear
61.7 °F
Feels Like 61.7 °F
N
2.2
Wind Variable Wind from West

Today
High -- | Low -- °F
--% Chance of Precip.
Yesterday
High -- | Low -- °F
Precip. -- in
Pressure 30.04 in
Visibility 10.0 miles
Clouds Clear
Dew Point 58 °F
Humidity 89%
Rainfall 0.00 in
Snow Depth Not available.
7:16 AM 8:18 PM
Waning Crescent, 10% visible
METAR KGUY 290853Z AUTO 00000KT 10SM CLR 18/16 A3017 RMK AO2 SLP170 T01830156 53005
Pressure 30.04 in
Visibility 10.0 miles
Clouds Clear
Dew Point 58 °F
Humidity 89%
Rainfall 0.00 in
Snow Depth Not available.
7:16 AM 8:18 PM
Waning Crescent, 10% visible
METAR KGUY 290853Z AUTO 00000KT 10SM CLR 18/16 A3017 RMK AO2 SLP170 T01830156 53005

10-Day Weather Forecast

Almanac

Astronomy

Aug. 29, 2016 Rise Set
Actual Time
Civil Twilight
Nautical Twilight
Astronomical Twilight
Moon
Length of Visible Light
Length of Day
Tomorrow will be .
, % of the Moon is Illuminated

Today's Extremes

State Highs State Lows

Community

WunderPhotos

Upload Photos

1,935,798 photos uploaded!

WunderBlog® & News

Nearby

Air Quality

  Air Quality AQ Index Pollutant
Not available.

Snow Depth

Station Depth Elevation

Earthquake Activity

City Distance Mag. Time & Date
Minimum magnitude displayed is 2.5.

Coastal Water Temperatures

Place Temperature

Stations

Nearby Weather Stations

Station Location Temp. Windchill Dew Point Humidity Wind Precip. Elev Updated Type
                   

Watches & Warnings

Areal Flood Watch
Issued: 3:58 AM CDT Aug. 29, 2016 – National Weather Service

... Flood Watch in effect from 1 PM CDT this afternoon through
Wednesday morning...

The National Weather Service in Amarillo has issued a

* Flood Watch for portions of Oklahoma and Texas... including the
following areas... in Oklahoma... Beaver and Texas. In Texas...
Collingsworth... Donley... gray... Hansford... Hemphill...
Hutchinson... Lipscomb... Ochiltree... Roberts and Wheeler.

* From 1 PM CDT this afternoon through Wednesday morning

* periods of scattered to numerous thunderstorms with heavy rain
are expected across most of the Texas and Oklahoma panhandles
Monday afternoon through Wednesday morning. Areas in the watch
have already seen heavy rains over the last two days resulting
in saturated soil conditions. This combined with additional
heavy rain expected through Wednesday morning will lead to
excessive runoff and possible flooding.

Precautionary/preparedness actions...

A Flood Watch means there is a potential for flooding based on
current forecasts. You should monitor later forecasts and be
alert for possible flood warnings. Those living in areas prone to
flooding should be prepared to take action should flooding
develop.